• Join FlightAware (Why Join?)
  • Login
  • US Flag 
05:46PM EST


 

Airport Tracker/Info


-or-


 

Live Flight TrackerFlight Track Log ✈ QJE1707 ✈ 22-Apr-2013 ✈ YGLA / GLT - YBBN / BNE

Flight Track Log - Related Links

Times and Time Zones

All times are in EDT time to prevent confusion due to time zone crossing. See the QJE1707 flight status page for this flight to view local times or setup timezone preferences in your user account.

Time Position Orientation Groundspeed Altitude Reporting Facility
EDT Latitude Longitude Course Direction KTS MPH feet Rate Location/Type
10:46PM -23.8568 151.1814 169° South 145 167 2,500  Level Aus ATC (RADAR)
10:48PM -23.9381 151.1981 169° South 278 320 6,600 2,659 Climbing Aus ATC (RADAR)
10:49PM -24.0259 151.2876 137° Southeast 303 349 10,700 2,677 Climbing Aus ATC (RADAR)
10:51PM -24.1385 151.3772 144° Southeast 328 377 14,900 2,335 Climbing Aus ATC (RADAR)
10:52PM -24.2972 151.3879 176° South 394 453 17,900 2,225 Climbing Aus ATC (RADAR)
10:54PM -24.4687 151.3998 176° South 417 480 21,500 2,365 Climbing Aus ATC (RADAR)
10:54PM -24.4982 151.4020 176° South 422 486 22,000 2,035 Climbing Aus ATC (RADAR)
10:56PM -24.7011 151.4156 177° South 441 507 25,400 1,800 Climbing Aus ATC (RADAR)
10:58PM -25.0435 151.4401 176° South 468 539 29,800 1,752 Climbing Aus ATC (RADAR)
11:00PM -25.2336 151.4539 176° South 455 524 32,700 1,067 Climbing Aus ATC (RADAR)
11:01PM -25.4235 151.4680 176° South 454 522 33,000 100 Climbing Aus ATC (RADAR)
11:03PM -25.6129 151.4810 176° South 453 521 33,000  Level Aus ATC (RADAR)
11:04PM -25.7912 151.5373 164° South 484 557 33,000  Level Aus ATC (RADAR)
11:06PM -25.9430 151.6891 138° Southeast 512 589 33,000  Level Aus ATC (RADAR)
11:06PM -25.9786 151.7244 138° Southeast 510 587 33,000 -421 Level Aus ATC (RADAR)
11:08PM -26.1457 151.8924 138° Southeast 508 585 32,200 -1,985 Descending Aus ATC (RADAR)
11:11PM -26.4569 152.2085 138° Southeast 470 541 23,900 -2,540 Descending Aus ATC (RADAR)
11:13PM -26.6292 152.3778 139° Southeast 395 455 19,500 -2,192 Descending Aus ATC (RADAR)
11:14PM -26.7602 152.5136 137° Southeast 365 420 15,900 -2,147 Descending Aus ATC (RADAR)
11:16PM -26.8861 152.6433 137° Southeast 335 386 12,200 -1,590 Descending Aus ATC (RADAR)
11:18PM -26.9900 152.7503 137° Southeast 311 358 10,600 -1,362 Descending Aus ATC (RADAR)
11:19PM -27.0846 152.8475 138° Southeast 296 341 8,000 -1,029 Descending Aus ATC (RADAR)
11:21PM -27.1860 152.9056 153° Southeast 279 321 7,100 -591 Descending Aus ATC (RADAR)
11:22PM -27.2629 152.9044 181° South 274 315 6,000 -886 Descending Aus ATC (RADAR)
11:24PM -27.4802 152.9361 173° South 253 291 4,000 -784 Descending Aus ATC (RADAR)
11:26PM -27.5596 153.0049 143° Southeast 222 255 3,100 -584 Descending Aus ATC (RADAR)
11:28PM -27.5039 153.0606 42° Northeast 189 217 2,200 -670 Descending Aus ATC (RADAR)
11:29PM -27.4492 153.0916 27° Northeast 121 139 1,100 -695 Descending Aus ATC (RADAR)